Time;durP1;ratioP1;P1;durP2;ratioP2;P2;SDS_P1;SDS_P2;PMS_P1;PMS_P2;Temp;Humidity;BMP_temperature;BMP_pressure;BME280_temperature;BME280_humidity;BME280_pressure;Samples;Min_cycle;Max_cycle;Signal;HPM_P1;HPM_P2
2022/12/01 00:04:23;;;;;;;41.63;27.88;;;;;;;4.57;100.00;102392.03;10403323;28;20047;-85
2022/12/01 00:14:43;;;;;;;50.78;28.83;;;;;;;4.52;100.00;102391.59;10442074;28;20128;-85
2022/12/01 00:19:43;;;;;;;46.38;29.73;;;;;;;4.55;100.00;102394.50;10440734;28;20048;-86
2022/12/01 00:24:44;;;;;;;42.60;25.23;;;;;;;4.52;100.00;102395.88;10441508;28;20043;-86
2022/12/01 00:29:45;;;;;;;39.60;23.95;;;;;;;4.49;100.00;102391.31;10443871;28;20040;-85
2022/12/01 00:34:45;;;;;;;47.72;26.73;;;;;;;4.51;100.00;102388.84;10468527;28;20104;-86
2022/12/01 00:39:46;;;;;;;46.78;25.17;;;;;;;4.50;100.00;102394.81;10439044;28;20037;-86
2022/12/01 00:44:46;;;;;;;47.20;26.80;;;;;;;4.50;100.00;102389.63;10442179;28;20515;-86
2022/12/01 00:49:47;;;;;;;53.33;33.25;;;;;;;4.49;100.00;102388.72;10440219;28;20124;-86
2022/12/01 00:54:47;;;;;;;62.63;34.00;;;;;;;4.47;100.00;102385.06;10441303;28;20102;-85
2022/12/01 00:59:48;;;;;;;65.72;35.95;;;;;;;4.45;100.00;102389.19;10408192;28;20037;-86
2022/12/01 01:04:49;;;;;;;67.05;35.80;;;;;;;4.43;100.00;102392.38;10410641;28;20059;-84
2022/12/01 01:09:49;;;;;;;70.93;39.45;;;;;;;4.38;100.00;102398.03;10425466;28;20041;-85
2022/12/01 01:14:50;;;;;;;68.65;35.72;;;;;;;4.33;100.00;102404.44;10426593;28;20175;-86
2022/12/01 01:19:51;;;;;;;74.53;39.53;;;;;;;4.33;100.00;102419.09;10459041;28;20032;-86
2022/12/01 01:24:52;;;;;;;72.18;39.70;;;;;;;4.33;100.00;102412.22;10479651;28;20511;-86
2022/12/01 01:29:52;;;;;;;85.07;39.97;;;;;;;4.31;100.00;102423.22;10481268;28;20036;-87
2022/12/01 01:34:53;;;;;;;80.60;37.78;;;;;;;4.24;100.00;102426.88;10480422;28;20370;-86
2022/12/01 01:39:53;;;;;;;79.25;39.97;;;;;;;4.18;100.00;102427.19;10448305;28;20065;-85
2022/12/01 01:44:55;;;;;;;63.88;36.78;;;;;;;4.15;100.00;102424.31;10449262;28;20454;-86
2022/12/01 01:49:59;;;;;;;65.75;36.42;;;;;;;4.14;100.00;102426.72;10478894;28;20044;-85
2022/12/01 01:55:00;;;;;;;77.40;36.97;;;;;;;4.14;100.00;102429.31;10437815;28;20135;-86
2022/12/01 02:00:06;;;;;;;81.30;39.95;;;;;;;4.16;100.00;102430.38;10452390;28;20052;-86
2022/12/01 02:05:09;;;;;;;87.85;41.05;;;;;;;4.09;100.00;102429.78;10431511;28;20041;-86
2022/12/01 02:10:11;;;;;;;73.85;37.15;;;;;;;4.14;100.00;102429.31;10443996;28;20053;-86
2022/12/01 02:15:29;;;;;;;71.85;41.92;;;;;;;4.13;100.00;102432.69;10463029;28;20037;-85
2022/12/01 02:20:51;;;;;;;88.28;41.13;;;;;;;4.18;100.00;102434.97;10456039;28;20061;-86
2022/12/01 02:26:28;;;;;;;94.83;41.03;;;;;;;4.21;100.00;102429.16;10431539;28;20041;-86
2022/12/01 02:31:57;;;;;;;82.63;40.45;;;;;;;4.18;100.00;102429.78;10473758;28;20041;-85
2022/12/01 02:37:04;;;;;;;70.53;37.00;;;;;;;4.16;100.00;102432.97;10430398;28;20051;-86
2022/12/01 02:42:08;;;;;;;77.85;34.72;;;;;;;4.10;100.00;102431.63;10447390;28;20043;-86
2022/12/01 02:47:11;;;;;;;70.38;34.15;;;;;;;4.10;100.00;102434.19;10445953;28;20098;-86
2022/12/01 02:52:12;;;;;;;78.40;40.90;;;;;;;4.24;100.00;102435.59;10397703;28;20045;-86
2022/12/01 02:57:13;;;;;;;78.85;37.63;;;;;;;4.21;100.00;102436.94;10395501;28;20069;-86
2022/12/01 03:02:29;;;;;;;67.53;37.27;;;;;;;4.18;100.00;102442.75;10442063;28;20063;-85
2022/12/01 03:07:35;;;;;;;75.82;39.45;;;;;;;4.23;100.00;102440.59;10388598;28;1234866;-85
2022/12/01 03:13:09;;;;;;;68.40;35.47;;;;;;;4.21;100.00;102436.94;10429601;28;20046;-86
2022/12/01 03:18:24;;;;;;;74.70;32.70;;;;;;;4.09;100.00;102432.38;10479616;28;20032;-86
2022/12/01 03:23:26;;;;;;;71.18;31.85;;;;;;;4.10;100.00;102438.50;10467293;28;20040;-86
2022/12/01 03:28:29;;;;;;;70.95;36.80;;;;;;;4.08;100.00;102433.13;10448523;28;20052;-86
2022/12/01 03:33:37;;;;;;;68.80;35.50;;;;;;;4.13;100.00;102436.19;10484888;28;20079;-85
2022/12/01 03:38:38;;;;;;;71.78;39.50;;;;;;;4.21;100.00;102434.34;10479782;28;20040;-86
2022/12/01 03:43:41;;;;;;;91.07;44.03;;;;;;;4.24;100.00;102427.81;10427355;28;20064;-85
2022/12/01 03:48:41;;;;;;;72.65;40.88;;;;;;;4.30;100.00;102426.56;10459774;28;20043;-86
2022/12/01 03:54:39;;;;;;;77.22;38.70;;;;;;;4.26;100.00;102435.72;10424659;28;20037;-85
2022/12/01 03:59:40;;;;;;;87.63;40.42;;;;;;;4.19;100.00;102431.63;10286162;28;20085;-85
2022/12/01 04:04:40;;;;;;;75.65;41.75;;;;;;;4.23;100.00;102431.16;10405358;28;20182;-85
2022/12/01 04:09:41;;;;;;;90.53;42.05;;;;;;;4.15;100.00;102439.84;10414576;28;20041;-84
2022/12/01 04:14:41;;;;;;;86.72;41.80;;;;;;;4.11;100.00;102432.53;10407628;28;20532;-86
2022/12/01 04:19:42;;;;;;;95.30;45.05;;;;;;;4.18;100.00;102439.22;10459655;28;20029;-85
2022/12/01 04:24:43;;;;;;;89.00;44.45;;;;;;;4.28;100.00;102446.25;10457545;28;20399;-85
2022/12/01 04:29:43;;;;;;;92.25;45.30;;;;;;;4.23;100.00;102444.13;10480435;28;20480;-83
2022/12/01 04:34:44;;;;;;;77.28;38.40;;;;;;;4.27;100.00;102442.72;10480939;28;20160;-88
2022/12/01 04:39:44;;;;;;;82.78;44.42;;;;;;;4.28;100.00;102436.78;10469057;28;20168;-88
2022/12/01 04:44:45;;;;;;;107.32;46.95;;;;;;;4.20;100.00;102430.88;10464855;28;20124;-85
2022/12/01 04:49:45;;;;;;;77.95;41.55;;;;;;;4.24;100.00;102427.81;10459160;28;20044;-85
2022/12/01 04:54:46;;;;;;;84.60;37.55;;;;;;;4.19;100.00;102430.69;10460011;28;20052;-84
2022/12/01 04:59:46;;;;;;;85.22;45.25;;;;;;;4.31;100.00;102436.19;10460905;28;20060;-84
2022/12/01 05:04:47;;;;;;;79.45;38.53;;;;;;;4.25;100.00;102424.44;10425844;28;20095;-84
2022/12/01 05:09:47;;;;;;;84.28;42.00;;;;;;;4.23;100.00;102423.38;10463764;28;20041;-86
2022/12/01 05:14:48;;;;;;;95.85;45.80;;;;;;;4.15;100.00;102437.25;10450382;28;20048;-83
2022/12/01 05:25:08;;;;;;;100.50;44.75;;;;;;;4.09;100.00;102437.56;10439165;28;20132;-83
2022/12/01 05:30:09;;;;;;;122.32;52.30;;;;;;;4.11;100.00;102449.00;10421422;28;20041;-84
2022/12/01 05:35:09;;;;;;;84.07;39.58;;;;;;;4.18;100.00;102449.59;10424384;28;20115;-86
2022/12/01 05:40:10;;;;;;;88.50;39.28;;;;;;;4.18;100.00;102440.16;10423325;28;20473;-85
2022/12/01 05:45:11;;;;;;;82.95;43.67;;;;;;;4.11;100.00;102442.91;10416463;28;20041;-84
2022/12/01 05:50:11;;;;;;;81.72;37.90;;;;;;;4.15;100.00;102451.88;10434377;28;20103;-84
2022/12/01 05:55:12;;;;;;;84.97;36.67;;;;;;;4.13;100.00;102443.97;10416892;28;20122;-81
2022/12/01 06:00:13;;;;;;;64.72;30.92;;;;;;;4.07;100.00;102446.84;10444945;28;20124;-84
2022/12/01 06:05:14;;;;;;;63.70;29.15;;;;;;;4.01;100.00;102448.84;10446095;28;20040;-86
2022/12/01 06:10:15;;;;;;;61.00;27.02;;;;;;;4.00;100.00;102453.88;10437891;28;20053;-88
2022/12/01 06:15:16;;;;;;;72.95;34.15;;;;;;;4.02;100.00;102445.47;10476762;28;20125;-86
2022/12/01 06:20:16;;;;;;;65.40;32.28;;;;;;;3.96;100.00;102453.56;10445091;28;20045;-83
2022/12/01 06:25:17;;;;;;;88.70;33.20;;;;;;;3.97;100.00;102462.25;10432019;28;20099;-83
2022/12/01 06:30:17;;;;;;;64.03;33.80;;;;;;;3.93;100.00;102461.03;10459548;28;20594;-82
2022/12/01 06:35:18;;;;;;;71.35;31.08;;;;;;;3.95;100.00;102474.13;10447014;28;20128;-82
2022/12/01 06:40:19;;;;;;;55.42;30.02;;;;;;;3.96;100.00;102465.59;10438551;28;20045;-83
2022/12/01 06:45:19;;;;;;;56.58;29.13;;;;;;;3.92;100.00;102471.22;10422968;28;20101;-83
2022/12/01 06:50:20;;;;;;;56.92;30.05;;;;;;;3.94;100.00;102473.22;10409571;28;20124;-82
2022/12/01 06:55:20;;;;;;;46.40;25.67;;;;;;;3.92;100.00;102471.22;10422502;28;20424;-81
2022/12/01 07:00:24;;;;;;;52.78;26.13;;;;;;;3.93;100.00;102471.41;10406675;28;20466;-81
2022/12/01 07:05:24;;;;;;;43.15;23.65;;;;;;;3.89;100.00;102469.28;10461316;28;20567;-83
2022/12/01 07:10:26;;;;;;;45.08;20.85;;;;;;;3.84;100.00;102480.84;10449692;28;20076;-91
2022/12/01 07:15:27;;;;;;;31.33;20.27;;;;;;;3.84;100.00;102478.25;10439644;28;20040;-92
2022/12/01 07:20:28;;;;;;;35.00;21.73;;;;;;;3.87;100.00;102483.75;10485048;28;20036;-92
2022/12/01 07:25:28;;;;;;;40.08;21.30;;;;;;;3.89;100.00;102494.25;10466392;28;20082;-92
2022/12/01 07:30:29;;;;;;;35.75;20.52;;;;;;;4.00;100.00;102493.66;10478579;28;20040;-90
2022/12/01 07:35:30;;;;;;;36.13;22.25;;;;;;;3.95;100.00;102495.78;10485598;28;20565;-93
2022/12/01 07:40:31;;;;;;;43.80;24.08;;;;;;;4.00;100.00;102500.53;10486882;28;20029;-91
2022/12/01 07:45:31;;;;;;;42.40;20.73;;;;;;;3.97;100.00;102502.03;10465375;28;20120;-92
2022/12/01 07:50:32;;;;;;;39.67;21.38;;;;;;;3.96;100.00;102509.63;10466658;28;20123;-91
2022/12/01 07:55:32;;;;;;;45.40;20.25;;;;;;;4.00;100.00;102500.53;10434516;28;20051;-93
2022/12/01 08:00:33;;;;;;;35.38;16.60;;;;;;;4.06;100.00;102508.91;10483992;28;20441;-94
2022/12/01 08:05:34;;;;;;;36.28;20.15;;;;;;;4.05;100.00;102502.78;10483595;28;20028;-87
2022/12/01 08:10:35;;;;;;;51.25;23.52;;;;;;;4.22;100.00;102506.16;10475477;28;20193;-92
2022/12/01 08:15:35;;;;;;;50.70;27.75;;;;;;;4.40;100.00;102520.06;10469356;28;20040;-87
2022/12/01 08:20:36;;;;;;;62.60;29.35;;;;;;;4.43;100.00;102504.78;10480979;28;20376;-86
2022/12/01 08:25:36;;;;;;;50.25;33.70;;;;;;;4.45;100.00;102508.47;10482158;28;20040;-86
2022/12/01 08:30:37;;;;;;;60.55;31.92;;;;;;;4.55;100.00;102505.06;10483526;28;20032;-87
2022/12/01 08:35:37;;;;;;;59.25;32.50;;;;;;;4.55;100.00;102511.19;10483652;28;20066;-86
2022/12/01 08:40:38;;;;;;;65.82;35.17;;;;;;;4.53;100.00;102509.19;10481217;28;20554;-86
2022/12/01 08:45:38;;;;;;;50.03;30.02;;;;;;;4.60;100.00;102522.00;10481604;28;20531;-83
2022/12/01 08:50:39;;;;;;;50.30;32.38;;;;;;;4.58;100.00;102523.53;10482918;28;20054;-86
2022/12/01 08:55:39;;;;;;;57.78;35.05;;;;;;;4.59;100.00;102525.34;10480998;28;20549;-86
2022/12/01 09:00:40;;;;;;;57.42;35.85;;;;;;;4.61;100.00;102531.59;10480971;28;20182;-87
2022/12/01 09:05:41;;;;;;;48.78;29.65;;;;;;;4.61;100.00;102529.00;10482492;28;20361;-86
2022/12/01 09:10:50;;;;;;;46.13;27.50;;;;;;;4.57;100.00;102532.06;10483027;28;20036;-86
2022/12/01 09:15:55;;;;;;;53.35;30.58;;;;;;;4.54;100.00;102532.69;10452037;28;20037;-87
2022/12/01 09:20:55;;;;;;;48.33;29.30;;;;;;;4.65;100.00;102531.16;10472171;28;20067;-83
2022/12/01 09:25:59;;;;;;;47.65;29.63;;;;;;;4.58;100.00;102523.53;10459319;28;20043;-83
2022/12/01 09:31:10;;;;;;;47.20;29.48;;;;;;;4.61;100.00;102526.41;10452035;28;20530;-86
2022/12/01 09:36:10;;;;;;;47.60;29.90;;;;;;;4.69;100.00;102529.78;10456070;28;20037;-85
2022/12/01 09:41:24;;;;;;;47.70;27.33;;;;;;;4.77;100.00;102528.84;10466662;28;20090;-87
2022/12/01 09:46:31;;;;;;;50.83;27.48;;;;;;;4.76;100.00;102524.44;10443850;28;20101;-87
2022/12/01 09:51:33;;;;;;;53.50;29.73;;;;;;;4.82;100.00;102524.09;10449753;28;20067;-86
2022/12/01 09:56:41;;;;;;;47.83;28.77;;;;;;;5.06;100.00;102528.19;10446403;28;20091;-87
2022/12/01 10:01:43;;;;;;;53.30;29.65;;;;;;;5.10;100.00;102519.00;10472440;28;20507;-89
2022/12/01 10:06:50;;;;;;;67.82;33.78;;;;;;;5.09;100.00;102517.16;10444436;28;20040;-88
2022/12/01 10:11:57;;;;;;;54.67;30.98;;;;;;;5.03;100.00;102512.31;10406589;28;20037;-86
2022/12/01 10:17:13;;;;;;;52.75;31.20;;;;;;;5.00;100.00;102510.31;10432083;28;20079;-87
2022/12/01 10:22:42;;;;;;;49.97;29.27;;;;;;;5.01;100.00;102508.66;10455503;28;20140;-84
2022/12/01 10:28:07;;;;;;;54.45;29.25;;;;;;;4.98;100.00;102504.06;10477462;28;20032;-84
2022/12/01 10:33:16;;;;;;;47.53;29.63;;;;;;;4.94;100.00;102501.94;10466267;28;20109;-84
2022/12/01 10:38:35;;;;;;;54.45;31.83;;;;;;;4.88;100.00;102501.34;10488666;28;20044;-83
2022/12/01 10:43:38;;;;;;;49.30;31.17;;;;;;;4.85;100.00;102503.66;10469559;28;20091;-85
2022/12/01 10:48:57;;;;;;;62.25;34.50;;;;;;;4.83;100.00;102497.41;10488418;28;20055;-84
2022/12/01 10:53:59;;;;;;;55.75;30.92;;;;;;;4.90;100.00;102488.53;10485753;28;20060;-83
2022/12/01 10:59:03;;;;;;;56.10;31.55;;;;;;;4.98;100.00;102490.19;10468723;28;20036;-83
2022/12/01 11:04:19;;;;;;;64.47;32.53;;;;;;;5.02;100.00;102488.78;10470508;28;20033;-83
2022/12/01 11:09:22;;;;;;;49.17;31.80;;;;;;;5.00;100.00;102484.38;10444351;28;20077;-83
2022/12/01 11:14:32;;;;;;;62.40;33.50;;;;;;;5.03;100.00;102470.78;10485397;28;20123;-84
2022/12/01 11:19:33;;;;;;;58.10;32.67;;;;;;;5.05;100.00;102470.91;10444817;28;20558;-84
2022/12/01 11:24:41;;;;;;;57.85;33.15;;;;;;;5.11;100.00;102467.25;10410760;28;20037;-83
2022/12/01 11:29:41;;;;;;;64.05;30.67;;;;;;;5.25;100.00;102458.16;10443394;28;20037;-84
2022/12/01 11:34:47;;;;;;;51.20;30.77;;;;;;;5.24;100.00;102458.94;10443146;28;20025;-83
2022/12/01 11:39:47;;;;;;;62.72;32.03;;;;;;;5.23;100.00;102459.69;10442550;28;20477;-84
2022/12/01 11:44:53;;;;;;;182.13;100.82;;;;;;;5.19;100.00;102452.38;10425716;28;20104;-84
2022/12/01 11:49:56;;;;;;;51.15;26.75;;;;;;;5.06;100.00;102457.19;10453320;28;20044;-84
2022/12/01 11:55:21;;;;;;;50.35;29.70;;;;;;;5.14;100.00;102464.00;10467167;28;20115;-85
2022/12/01 12:00:24;;;;;;;52.40;29.48;;;;;;;5.20;100.00;102454.22;10460056;28;20052;-86
2022/12/01 12:05:30;;;;;;;55.90;30.55;;;;;;;5.20;100.00;102450.72;10452298;28;20435;-86
2022/12/01 12:10:45;;;;;;;53.03;28.55;;;;;;;5.12;100.00;102455.16;10442471;28;20049;-87
2022/12/01 12:15:55;;;;;;;46.40;25.50;;;;;;;5.10;100.00;102451.50;10438848;28;20127;-86
2022/12/01 12:21:09;;;;;;;45.40;29.20;;;;;;;4.98;100.00;102449.56;10433909;28;20036;-85
2022/12/01 12:26:23;;;;;;;40.75;26.10;;;;;;;4.89;100.00;102445.19;10421178;28;20094;-85
2022/12/01 12:31:45;;;;;;;52.65;29.75;;;;;;;4.90;100.00;102450.53;10407068;28;20037;-86
2022/12/01 12:36:49;;;;;;;68.50;40.20;;;;;;;4.93;100.00;102445.63;10407347;28;20393;-86
2022/12/01 12:41:54;;;;;;;45.10;23.55;;;;;;;5.02;100.00;102434.28;10441218;28;20045;-85
2022/12/01 12:47:05;;;;;;;50.20;24.55;;;;;;;5.04;100.00;102425.91;10440081;28;20033;-85
2022/12/01 12:52:09;;;;;;;42.53;27.02;;;;;;;5.07;100.00;102420.06;10437520;28;20511;-86
2022/12/01 12:57:31;;;;;;;42.92;26.73;;;;;;;5.05;100.00;102421.63;10421660;28;20044;-86
2022/12/01 13:03:00;;;;;;;39.03;22.58;;;;;;;5.14;100.00;102414.69;10441358;28;20112;-85
2022/12/01 13:08:05;;;;;;;50.50;24.85;;;;;;;5.11;100.00;102409.22;10426975;28;20630;-86
2022/12/01 13:13:31;;;;;;;39.55;23.67;;;;;;;5.11;100.00;102411.81;10391490;28;20037;-85
2022/12/01 13:18:50;;;;;;;41.97;24.05;;;;;;;4.96;100.00;102409.59;10374792;28;20045;-93
2022/12/01 13:23:53;;;;;;;45.03;26.90;;;;;;;4.85;100.00;102403.41;10427418;28;20041;-90
2022/12/01 13:28:58;;;;;;;41.83;25.83;;;;;;;4.85;100.00;102406.00;10442454;28;20052;-86
2022/12/01 13:34:00;;;;;;;52.78;28.00;;;;;;;4.92;100.00;102398.78;10459164;28;20041;-82
2022/12/01 13:39:14;;;;;;;;;;;;;;;4.90;100.00;102406.41;10423100;28;20075;-82
2022/12/01 13:44:22;;;;;;;54.08;30.67;;;;;;;4.91;100.00;102400.47;10403347;28;19916;-84
2022/12/01 13:49:38;;;;;;;49.92;31.40;;;;;;;4.87;100.00;102397.44;10419275;28;20049;-82
2022/12/01 13:54:38;;;;;;;50.03;28.38;;;;;;;4.75;100.00;102392.91;10405727;28;20044;-86
2022/12/01 14:00:00;;;;;;;52.88;29.50;;;;;;;4.77;100.00;102400.81;10389761;28;20039;-88
2022/12/01 14:05:23;;;;;;;43.70;27.90;;;;;;;4.76;100.00;102388.63;10464794;28;20568;-88
2022/12/01 14:10:29;;;;;;;40.35;23.90;;;;;;;4.67;100.00;102389.56;10442316;28;20118;-86
2022/12/01 14:15:41;;;;;;;48.38;26.85;;;;;;;4.64;100.00;102391.84;10403779;28;20045;-85
2022/12/01 14:20:45;;;;;;;49.55;25.58;;;;;;;4.68;100.00;102391.38;10429827;28;20029;-86
2022/12/01 14:26:11;;;;;;;49.08;26.40;;;;;;;4.68;100.00;102388.78;10468629;28;20041;-84
2022/12/01 14:31:12;;;;;;;47.53;29.75;;;;;;;4.71;100.00;102395.97;10467608;28;20102;-84
2022/12/01 14:36:28;;;;;;;45.80;26.13;;;;;;;4.68;100.00;102400.88;10444258;28;20039;-86
2022/12/01 14:41:43;;;;;;;53.72;30.45;;;;;;;4.78;100.00;102402.66;10429290;28;20041;-87
2022/12/01 14:47:11;;;;;;;41.92;26.27;;;;;;;4.73;100.00;102407.41;10439426;28;20036;-88
2022/12/01 14:52:27;;;;;;;49.38;26.17;;;;;;;4.63;100.00;102405.59;10440956;28;20063;-87
2022/12/01 14:57:37;;;;;;;53.72;27.08;;;;;;;4.55;100.00;102409.13;10445221;28;20041;-91
2022/12/01 15:02:41;;;;;;;38.65;22.25;;;;;;;4.47;100.00;102400.63;10426585;28;20048;-93
2022/12/01 15:08:19;;;;;;;43.40;27.85;;;;;;;4.41;100.00;102403.50;10424813;28;20048;-88
2022/12/01 15:13:29;;;;;;;41.60;23.40;;;;;;;4.42;100.00;102407.03;10444710;28;20051;-88
2022/12/01 15:18:35;;;;;;;38.10;21.50;;;;;;;4.39;100.00;102404.16;10427454;28;20037;-87
2022/12/01 15:23:36;;;;;;;46.90;26.20;;;;;;;4.40;100.00;102401.69;10436411;28;20041;-88
2022/12/01 15:28:37;;;;;;;44.58;25.52;;;;;;;4.30;100.00;102411.94;10449273;28;20089;-88
2022/12/01 15:33:46;;;;;;;41.90;23.15;;;;;;;4.39;100.00;102405.03;10482403;28;20036;-89
2022/12/01 15:38:47;;;;;;;39.40;21.67;;;;;;;4.33;100.00;102401.84;10466642;28;20124;-87
2022/12/01 15:43:55;;;;;;;39.42;20.58;;;;;;;4.25;100.00;102403.72;10467154;28;20481;-87
2022/12/01 15:49:07;;;;;;;44.70;24.75;;;;;;;4.29;100.00;102414.38;10465796;28;20029;-87
2022/12/01 15:54:21;;;;;;;47.53;24.58;;;;;;;4.30;100.00;102417.09;10466092;28;20040;-88
2022/12/01 15:59:24;;;;;;;35.85;20.38;;;;;;;4.24;100.00;102419.09;10450956;28;20067;-88
2022/12/01 16:04:26;;;;;;;40.20;23.90;;;;;;;4.10;100.00;102416.06;10484001;28;20484;-87
2022/12/01 16:09:42;;;;;;;43.97;25.13;;;;;;;4.20;100.00;102432.53;10480916;28;20036;-87
2022/12/01 16:14:59;;;;;;;53.95;24.63;;;;;;;4.18;100.00;102437.56;10480972;28;20598;-87
2022/12/01 16:20:16;;;;;;;44.67;26.98;;;;;;;4.18;100.00;102434.03;10481503;28;20033;-88
2022/12/01 16:25:36;;;;;;;45.97;26.13;;;;;;;4.21;100.00;102436.94;10479577;28;20041;-88
2022/12/01 16:30:37;;;;;;;44.83;26.15;;;;;;;4.20;100.00;102428.28;10479337;28;20119;-88
2022/12/01 16:35:37;;;;;;;33.43;18.67;;;;;;;4.14;100.00;102427.66;10480265;28;20404;-88
2022/12/01 16:40:40;;;;;;;41.10;25.20;;;;;;;4.02;100.00;102426.44;10483245;28;20041;-87
2022/12/01 16:45:42;;;;;;;57.45;30.63;;;;;;;4.07;100.00;102430.41;10482710;28;20380;-87
2022/12/01 16:50:42;;;;;;;51.78;25.67;;;;;;;4.21;100.00;102409.38;10481197;28;20052;-88
2022/12/01 16:55:50;;;;;;;46.47;23.77;;;;;;;4.14;100.00;102404.34;10483962;28;20111;-87
2022/12/01 17:00:53;;;;;;;39.72;23.10;;;;;;;4.26;100.00;102412.38;10481504;28;20102;-87
2022/12/01 17:05:54;;;;;;;45.55;23.65;;;;;;;4.28;100.00;102413.44;10464878;28;20449;-88
2022/12/01 17:10:54;;;;;;;51.45;24.95;;;;;;;4.24;100.00;102411.31;10482106;28;20041;-87
2022/12/01 17:15:55;;;;;;;52.75;28.77;;;;;;;4.22;100.00;102418.97;10482191;28;20036;-87
2022/12/01 17:20:59;;;;;;;50.60;27.92;;;;;;;4.17;100.00;102424.44;10482395;28;20035;-88
2022/12/01 17:26:00;;;;;;;48.17;25.80;;;;;;;4.10;100.00;102426.44;10480280;28;20112;-88
2022/12/01 17:31:00;;;;;;;51.97;24.92;;;;;;;4.13;100.00;102436.19;10464547;28;20043;-89
2022/12/01 17:36:03;;;;;;;50.55;30.33;;;;;;;4.13;100.00;102435.28;10482916;28;20400;-88
2022/12/01 17:41:12;;;;;;;47.03;29.13;;;;;;;4.06;100.00;102434.66;10463570;28;20082;-88
2022/12/01 17:46:13;;;;;;;49.08;27.67;;;;;;;4.03;100.00;102442.13;10481036;28;20369;-88
2022/12/01 17:51:13;;;;;;;58.28;31.00;;;;;;;3.96;100.00;102452.66;10482337;28;20059;-88
2022/12/01 17:56:15;;;;;;;48.92;31.77;;;;;;;3.96;100.00;102445.81;10471095;28;20081;-88
2022/12/01 18:01:20;;;;;;;46.53;25.83;;;;;;;4.01;100.00;102445.34;10470343;28;20036;-84
2022/12/01 18:06:20;;;;;;;51.75;27.15;;;;;;;3.96;100.00;102445.81;10490456;28;20051;-88
2022/12/01 18:11:22;;;;;;;50.55;28.95;;;;;;;3.91;100.00;102447.03;10490543;28;20518;-88
2022/12/01 18:16:24;;;;;;;62.75;33.90;;;;;;;4.00;100.00;102452.19;10488658;28;20044;-88
2022/12/01 18:21:25;;;;;;;;;;;;;;;3.98;100.00;102448.53;10488031;28;20033;-88
2022/12/01 18:26:26;;;;;;;64.75;30.25;;;;;;;3.91;100.00;102446.09;10488634;28;19916;-88
2022/12/01 18:31:27;;;;;;;61.35;32.20;;;;;;;3.77;100.00;102435.25;10469894;28;20437;-88
2022/12/01 18:36:28;;;;;;;54.40;31.73;;;;;;;3.82;100.00;102431.47;10486470;28;20112;-87
2022/12/01 18:41:29;;;;;;;53.47;35.42;;;;;;;3.85;100.00;102449.00;10469816;28;20032;-87
2022/12/01 18:46:29;;;;;;;56.00;29.58;;;;;;;3.90;100.00;102445.19;10486502;28;20032;-87
2022/12/01 18:51:32;;;;;;;64.72;31.05;;;;;;;3.81;100.00;102433.91;10485619;28;20086;-87
2022/12/01 18:56:32;;;;;;;68.20;35.22;;;;;;;3.79;100.00;102438.91;10486432;28;20509;-87
2022/12/01 19:01:37;;;;;;;76.60;40.13;;;;;;;3.73;100.00;102430.53;10469106;28;20049;-88
2022/12/01 19:06:39;;;;;;;60.65;36.63;;;;;;;3.74;100.00;102426.28;10468101;28;20041;-87
2022/12/01 19:11:39;;;;;;;66.78;34.65;;;;;;;3.71;100.00;102421.69;10470168;28;20028;-88
2022/12/01 19:16:40;;;;;;;74.57;40.55;;;;;;;3.65;100.00;102423.66;10467864;28;20052;-87
2022/12/01 19:21:41;;;;;;;94.03;41.70;;;;;;;3.58;100.00;102416.03;10485561;28;20354;-86
2022/12/01 19:26:42;;;;;;;80.35;40.67;;;;;;;3.53;100.00;102411.31;10484214;28;20071;-87
2022/12/01 19:31:42;;;;;;;83.35;43.92;;;;;;;3.53;100.00;102421.66;10484281;28;20508;-87
2022/12/01 19:36:43;;;;;;;69.13;40.22;;;;;;;3.52;100.00;102409.50;10484539;28;20108;-87
2022/12/01 19:41:43;;;;;;;80.68;44.00;;;;;;;3.51;100.00;102418.00;10484834;28;20119;-87
2022/12/01 19:46:44;;;;;;;81.43;41.30;;;;;;;3.43;100.00;102425.78;10485611;28;20158;-87
2022/12/01 19:51:44;;;;;;;83.82;44.58;;;;;;;3.32;100.00;102419.50;10466792;28;20044;-87
2022/12/01 19:56:45;;;;;;;92.65;47.78;;;;;;;3.36;100.00;102419.97;10458050;28;20037;-86
2022/12/01 20:01:46;;;;;;;78.68;42.10;;;;;;;3.20;100.00;102411.41;10443279;28;20384;-87
2022/12/01 20:06:46;;;;;;;99.18;51.80;;;;;;;3.19;100.00;102412.16;10443170;28;20078;-85
2022/12/01 20:11:47;;;;;;;84.07;49.53;;;;;;;3.08;100.00;102419.75;10444456;28;20128;-83
2022/12/01 20:16:47;;;;;;;89.85;51.60;;;;;;;3.08;100.00;102414.56;10441029;28;20047;-87
2022/12/01 20:21:48;;;;;;;88.35;51.42;;;;;;;3.05;100.00;102414.25;10408728;28;20147;-88
2022/12/01 20:26:50;;;;;;;98.90;50.85;;;;;;;3.01;100.00;102412.13;10424289;28;20040;-87
2022/12/01 20:31:51;;;;;;;87.40;47.30;;;;;;;3.03;100.00;102420.94;10483708;28;20396;-87
2022/12/01 20:36:52;;;;;;;102.53;49.53;;;;;;;3.17;100.00;102424.03;10465668;28;20052;-85
2022/12/01 20:41:53;;;;;;;90.43;50.03;;;;;;;3.31;100.00;102418.59;10464860;28;20373;-87
2022/12/01 20:46:53;;;;;;;92.78;51.53;;;;;;;3.25;100.00;102420.56;10482555;28;20119;-87
2022/12/01 20:51:54;;;;;;;87.78;45.72;;;;;;;3.12;100.00;102420.97;10483077;28;20036;-87
2022/12/01 20:56:54;;;;;;;88.45;54.63;;;;;;;3.11;100.00;102416.53;10481085;28;20089;-87
2022/12/01 21:01:55;;;;;;;107.32;53.50;;;;;;;2.96;100.00;102412.38;10465319;28;20036;-87
2022/12/01 21:06:56;;;;;;;101.43;55.30;;;;;;;2.96;100.00;102410.72;10482646;28;20048;-86
2022/12/01 21:17:28;;;;;;;102.40;56.97;;;;;;;2.98;100.00;102401.44;10440718;28;20049;-87
2022/12/01 21:22:29;;;;;;;107.22;56.83;;;;;;;2.88;100.00;102409.91;10466349;28;20491;-87
2022/12/01 21:27:29;;;;;;;111.13;59.53;;;;;;;2.75;100.00;102406.81;10467953;28;20123;-85
2022/12/01 21:32:32;;;;;;;99.03;55.78;;;;;;;2.72;100.00;102403.91;10469339;28;20067;-84
2022/12/01 21:37:32;;;;;;;;;;;;;;;2.76;100.00;102393.13;10466390;28;20133;-82
2022/12/01 21:42:33;;;;;;;118.32;65.18;;;;;;;2.68;100.00;102392.34;10469444;28;20000;-88
2022/12/01 21:47:33;;;;;;;104.97;61.05;;;;;;;2.79;100.00;102396.03;10450566;28;20599;-86
2022/12/01 21:52:38;;;;;;;111.10;55.63;;;;;;;2.88;100.00;102383.16;10479978;28;20089;-85
2022/12/01 21:57:42;;;;;;;107.65;68.82;;;;;;;2.94;100.00;102395.03;10441661;28;20040;-85
2022/12/01 22:02:47;;;;;;;125.63;65.75;;;;;;;2.87;100.00;102383.91;10461537;28;20051;-83
2022/12/01 22:07:48;;;;;;;120.82;67.03;;;;;;;2.91;100.00;102380.88;10463613;28;20049;-87
2022/12/01 22:12:48;;;;;;;99.80;56.47;;;;;;;2.95;100.00;102364.91;10450156;28;20045;-85
2022/12/01 22:17:50;;;;;;;118.22;60.38;;;;;;;3.04;100.00;102360.69;10426158;28;20087;-87
2022/12/01 22:22:51;;;;;;;98.20;56.92;;;;;;;3.11;100.00;102354.44;10432239;28;20036;-85
2022/12/01 22:27:51;;;;;;;92.05;50.97;;;;;;;3.14;100.00;102339.25;10432392;28;20032;-85
2022/12/01 22:32:59;;;;;;;113.80;59.42;;;;;;;3.05;100.00;102340.88;10442580;28;20392;-85
2022/12/01 22:38:31;;;;;;;101.00;56.97;;;;;;;3.04;100.00;102336.47;10428064;28;20033;-86
2022/12/01 22:43:40;;;;;;;95.88;53.67;;;;;;;3.12;100.00;102347.63;10443277;28;20037;-86
2022/12/01 22:48:49;;;;;;;90.07;56.45;;;;;;;3.15;100.00;102356.59;10441651;28;20037;-85
2022/12/01 22:53:52;;;;;;;97.68;57.72;;;;;;;3.20;100.00;102354.50;10466928;28;20044;-86
2022/12/01 22:58:53;;;;;;;90.30;51.78;;;;;;;3.20;100.00;102342.44;10468961;28;20029;-86
2022/12/01 23:04:16;;;;;;;92.20;53.55;;;;;;;3.06;100.00;102337.53;10458322;28;20396;-85
2022/12/01 23:09:17;;;;;;;91.85;46.97;;;;;;;3.01;100.00;102347.44;10448131;28;20086;-88